Time;durP1;ratioP1;P1;durP2;ratioP2;P2;SDS_P1;SDS_P2;PMS_P1;PMS_P2;Temp;Humidity;BMP_temperature;BMP_pressure;BME280_temperature;BME280_humidity;BME280_pressure;Samples;Min_cycle;Max_cycle;Signal;HPM_P1;HPM_P2
2023/06/04 00:01:00;;;;;;;5.80;3.10;;;;;;;15.70;54.46;96258.78;5049527;28;20393;-72
2023/06/04 00:03:26;;;;;;;6.40;2.97;;;;;;;15.72;54.77;96259.25;5049132;28;20416;-73
2023/06/04 00:05:53;;;;;;;5.95;2.88;;;;;;;15.54;54.66;96257.94;5049963;28;20076;-72
2023/06/04 00:08:19;;;;;;;6.60;3.08;;;;;;;15.60;55.18;96257.31;5048873;28;20056;-72
2023/06/04 00:10:46;;;;;;;8.38;3.63;;;;;;;15.56;55.61;96256.47;5048286;28;20072;-72
2023/06/04 00:13:14;;;;;;;8.07;3.30;;;;;;;15.48;55.36;96254.66;5045470;28;20056;-72
2023/06/04 00:15:41;;;;;;;6.35;3.22;;;;;;;15.49;55.47;96255.44;5040087;28;20041;-72
2023/06/04 00:18:08;;;;;;;10.02;4.45;;;;;;;15.43;55.51;96256.88;5048971;28;20126;-72
2023/06/04 00:20:34;;;;;;;8.73;3.75;;;;;;;15.37;55.41;96251.63;5050126;28;20044;-72
2023/06/04 00:23:01;;;;;;;8.48;3.38;;;;;;;15.34;55.65;96249.56;5049811;28;20049;-72
2023/06/04 00:25:27;;;;;;;4.93;3.10;;;;;;;15.39;56.15;96243.84;5048665;28;20048;-72
2023/06/04 00:27:54;;;;;;;5.90;3.75;;;;;;;15.39;56.34;96246.56;5049375;28;20051;-71
2023/06/04 00:30:21;;;;;;;4.47;3.05;;;;;;;15.40;56.34;96244.66;5049452;28;20049;-72
2023/06/04 00:32:48;;;;;;;7.72;3.47;;;;;;;15.40;56.87;96248.19;5050311;28;20045;-72
2023/06/04 00:35:14;;;;;;;4.32;2.90;;;;;;;15.32;56.10;96238.16;5049813;28;20056;-72
2023/06/04 00:37:41;;;;;;;6.28;3.25;;;;;;;15.30;56.32;96247.91;5049470;28;20049;-71
2023/06/04 00:40:08;;;;;;;8.43;3.30;;;;;;;15.30;57.02;96240.47;5049881;28;20052;-72
2023/06/04 00:42:35;;;;;;;4.60;3.03;;;;;;;15.29;56.84;96238.06;5050396;28;20048;-72
2023/06/04 00:45:02;;;;;;;6.68;3.20;;;;;;;15.18;55.61;96240.53;5050231;28;20048;-71
2023/06/04 00:47:30;;;;;;;7.15;3.28;;;;;;;15.20;56.20;96243.72;5049259;28;20041;-72
2023/06/04 00:49:58;;;;;;;7.15;3.30;;;;;;;15.15;56.10;96249.47;5049395;28;20045;-72
2023/06/04 00:52:26;;;;;;;6.82;3.10;;;;;;;15.09;55.63;96253.63;5049779;28;20048;-72
2023/06/04 00:54:54;;;;;;;8.20;2.95;;;;;;;15.03;55.31;96252.25;5050142;28;20045;-72
2023/06/04 00:57:21;;;;;;;9.90;4.00;;;;;;;15.01;55.41;96246.31;5032525;28;20038;-72
2023/06/04 00:59:47;;;;;;;7.82;3.28;;;;;;;15.02;55.29;96242.44;5030327;28;20045;-72
2023/06/04 01:02:16;;;;;;;5.60;3.08;;;;;;;15.05;55.81;96244.47;5047637;28;20060;-71
2023/06/04 01:04:50;;;;;;;13.13;3.88;;;;;;;15.08;56.23;96246.50;5050058;28;20721;-72
2023/06/04 01:07:18;;;;;;;6.38;3.20;;;;;;;15.06;56.53;96249.59;5048310;28;20041;-72
2023/06/04 01:09:45;;;;;;;6.60;3.28;;;;;;;15.08;55.59;96252.00;5048514;28;20504;-72
2023/06/04 01:12:13;;;;;;;5.85;3.40;;;;;;;15.02;56.03;96253.41;5048882;28;20118;-72
2023/06/04 01:14:39;;;;;;;5.53;3.00;;;;;;;14.96;55.71;96254.78;5052517;28;20048;-72
2023/06/04 01:17:15;;;;;;;6.57;3.33;;;;;;;14.92;55.70;96253.88;5051505;28;20456;-72
2023/06/04 01:20:03;;;;;;;5.63;3.42;;;;;;;14.87;56.00;96244.75;5052809;28;20083;-72
2023/06/04 01:22:36;;;;;;;8.52;3.35;;;;;;;14.83;56.10;96248.56;5052291;28;20053;-72
2023/06/04 01:25:04;;;;;;;9.70;3.20;;;;;;;14.77;56.26;96253.50;5051707;28;20045;-72
2023/06/04 01:27:32;;;;;;;18.10;4.25;;;;;;;14.69;56.24;96246.19;5052289;28;20054;-72
2023/06/04 01:30:00;;;;;;;6.13;3.30;;;;;;;14.63;56.35;96247.59;5052605;28;20418;-71
2023/06/04 01:32:27;;;;;;;6.88;3.03;;;;;;;14.57;56.13;96249.78;5052220;28;20041;-71
2023/06/04 01:34:55;;;;;;;6.05;2.83;;;;;;;14.55;56.69;96252.03;5051939;28;20052;-72
2023/06/04 01:37:22;;;;;;;5.57;3.08;;;;;;;14.54;56.37;96252.41;5051281;28;20049;-71
2023/06/04 01:39:48;;;;;;;4.10;2.58;;;;;;;14.51;55.93;96261.31;5052259;28;20548;-72
2023/06/04 01:42:15;;;;;;;4.43;2.53;;;;;;;14.45;56.25;96257.97;5051675;28;20052;-72
2023/06/04 01:44:41;;;;;;;5.93;2.25;;;;;;;14.42;55.90;96257.88;5052427;28;20041;-72
2023/06/04 01:47:08;;;;;;;3.20;2.22;;;;;;;14.38;56.85;96256.97;5051319;28;20389;-72
2023/06/04 01:49:34;;;;;;;3.40;2.22;;;;;;;14.35;57.53;96256.53;5051580;28;20049;-72
2023/06/04 01:52:02;;;;;;;5.35;2.85;;;;;;;14.32;57.14;96262.69;5052002;28;20056;-71
2023/06/04 01:54:30;;;;;;;3.65;2.50;;;;;;;14.28;57.69;96264.50;5051973;28;20033;-72
2023/06/04 01:56:56;;;;;;;14.52;3.40;;;;;;;14.24;57.39;96260.84;5051940;28;20070;-71
2023/06/04 01:59:23;;;;;;;4.20;2.50;;;;;;;14.16;56.97;96267.25;5050940;28;20045;-71
2023/06/04 02:01:49;;;;;;;18.15;3.78;;;;;;;14.09;57.22;96267.84;5051995;28;20514;-72
2023/06/04 02:04:15;;;;;;;4.30;2.50;;;;;;;14.02;57.02;96262.13;5051665;28;20045;-71
2023/06/04 02:06:42;;;;;;;4.05;2.58;;;;;;;13.98;57.32;96257.66;5051400;28;20727;-71
2023/06/04 02:09:10;;;;;;;14.18;3.10;;;;;;;13.95;58.11;96266.56;5051443;28;20052;-72
2023/06/04 02:11:36;;;;;;;7.47;2.95;;;;;;;13.90;57.83;96266.81;5052624;28;20049;-72
2023/06/04 02:14:03;;;;;;;10.77;3.38;;;;;;;13.86;58.05;96265.88;5052224;28;20060;-73
2023/06/04 02:16:29;;;;;;;14.77;3.30;;;;;;;13.80;58.68;96271.56;5052798;28;20047;-71
2023/06/04 02:18:56;;;;;;;4.90;2.50;;;;;;;13.75;58.38;96269.06;5053391;28;20045;-72
2023/06/04 02:21:22;;;;;;;4.22;2.47;;;;;;;13.71;58.08;96261.88;5051912;28;20041;-72
2023/06/04 02:23:49;;;;;;;7.47;2.78;;;;;;;13.67;57.97;96266.41;5052407;28;20052;-72
2023/06/04 02:26:17;;;;;;;4.80;2.75;;;;;;;13.66;58.81;96267.56;5052631;28;20055;-72
2023/06/04 02:28:43;;;;;;;6.03;2.53;;;;;;;13.62;59.03;96264.69;5053758;28;20059;-72
2023/06/04 02:31:10;;;;;;;6.25;3.17;;;;;;;13.58;59.17;96269.28;5053032;28;20049;-71
2023/06/04 02:33:36;;;;;;;9.65;3.65;;;;;;;13.53;59.50;96267.53;5055140;28;20041;-72
2023/06/04 02:36:03;;;;;;;7.10;3.00;;;;;;;13.51;59.24;96271.75;5051846;28;20049;-72
2023/06/04 02:38:29;;;;;;;5.25;2.88;;;;;;;13.47;59.68;96262.63;5053359;28;20056;-72
2023/06/04 02:40:56;;;;;;;5.03;2.90;;;;;;;13.38;59.41;96270.13;5054286;28;20045;-72
2023/06/04 02:43:24;;;;;;;4.07;2.47;;;;;;;13.28;59.74;96272.16;5053013;28;20044;-72
2023/06/04 02:45:50;;;;;;;3.75;2.45;;;;;;;13.25;60.54;96277.47;5051678;28;20045;-75
2023/06/04 02:48:17;;;;;;;6.32;2.63;;;;;;;13.20;61.05;96270.25;5050636;28;20496;-72
2023/06/04 02:50:43;;;;;;;9.82;3.67;;;;;;;13.18;61.36;96272.53;5051194;28;20056;-72
2023/06/04 02:53:10;;;;;;;4.40;2.80;;;;;;;13.16;61.64;96268.56;5050685;28;20139;-72
2023/06/04 02:55:37;;;;;;;4.75;3.05;;;;;;;13.13;61.91;96272.75;5049252;28;20673;-71
2023/06/04 02:58:03;;;;;;;5.30;3.20;;;;;;;13.09;62.04;96285.47;5035698;28;20048;-72
2023/06/04 03:00:31;;;;;;;3.53;2.65;;;;;;;13.06;62.19;96280.72;5051004;28;20052;-72
2023/06/04 03:03:01;;;;;;;6.25;3.30;;;;;;;13.04;62.16;96274.75;5051100;28;20124;-72
2023/06/04 03:05:27;;;;;;;6.38;3.63;;;;;;;13.03;62.77;96286.84;5050339;28;20516;-71
2023/06/04 03:07:56;;;;;;;6.43;3.90;;;;;;;13.01;63.33;96286.38;5050672;28;20048;-72
2023/06/04 03:10:22;;;;;;;5.20;3.53;;;;;;;13.01;63.19;96289.13;5049537;28;20057;-72
2023/06/04 03:12:49;;;;;;;7.97;3.63;;;;;;;12.95;63.10;96298.66;5050717;28;20059;-72
2023/06/04 03:15:15;;;;;;;5.68;3.45;;;;;;;12.90;63.69;96294.19;5050309;28;20048;-72
2023/06/04 03:17:44;;;;;;;6.75;3.67;;;;;;;12.84;63.87;96294.69;5050241;28;20036;-71
2023/06/04 03:20:11;;;;;;;7.07;3.53;;;;;;;12.79;63.95;96293.00;5048952;28;20041;-72
2023/06/04 03:22:37;;;;;;;4.40;3.13;;;;;;;12.74;64.53;96304.91;5050080;28;20053;-72
2023/06/04 03:25:05;;;;;;;5.43;3.33;;;;;;;12.70;64.99;96305.91;5036148;28;20045;-72
2023/06/04 03:27:32;;;;;;;5.78;3.45;;;;;;;12.67;64.58;96306.56;5030208;28;20041;-72
2023/06/04 03:29:59;;;;;;;6.35;3.00;;;;;;;12.62;64.45;96307.56;5030634;28;20045;-72
2023/06/04 03:32:25;;;;;;;6.60;3.50;;;;;;;12.58;64.66;96314.84;5038000;28;20045;-72
2023/06/04 03:34:53;;;;;;;9.23;3.58;;;;;;;12.54;65.01;96311.16;5049753;28;20048;-72
2023/06/04 03:37:20;;;;;;;5.32;3.00;;;;;;;12.51;65.28;96309.09;5049545;28;20044;-72
2023/06/04 03:39:46;;;;;;;5.43;3.55;;;;;;;12.49;65.12;96316.81;5049748;28;20056;-71
2023/06/04 03:42:12;;;;;;;4.75;3.20;;;;;;;12.43;65.26;96318.16;5049263;28;20048;-72
2023/06/04 03:44:39;;;;;;;7.45;3.50;;;;;;;12.39;65.41;96318.00;5050192;28;20041;-72
2023/06/04 03:47:05;;;;;;;5.70;3.53;;;;;;;12.36;65.69;96326.84;5049388;28;20052;-73
2023/06/04 03:49:32;;;;;;;9.75;4.10;;;;;;;12.31;65.58;96323.50;5050056;28;20045;-72
2023/06/04 03:52:00;;;;;;;5.38;3.55;;;;;;;12.31;65.78;96326.22;5049427;28;20408;-72
2023/06/04 03:54:26;;;;;;;6.60;3.65;;;;;;;12.30;66.06;96335.56;5049094;28;20045;-72
2023/06/04 03:56:53;;;;;;;7.13;4.00;;;;;;;12.26;65.47;96324.47;5050535;28;20056;-72
2023/06/04 03:59:19;;;;;;;5.63;3.42;;;;;;;12.23;65.57;96331.41;5050680;28;20511;-72
2023/06/04 04:01:46;;;;;;;6.72;3.85;;;;;;;12.23;65.86;96328.69;5050101;28;20049;-72
2023/06/04 04:04:12;;;;;;;6.55;3.60;;;;;;;12.24;65.77;96333.00;5049158;28;20052;-72
2023/06/04 04:06:39;;;;;;;7.20;3.85;;;;;;;12.25;65.76;96329.16;5049212;28;20048;-72
2023/06/04 04:09:07;;;;;;;5.15;3.53;;;;;;;12.27;66.17;96335.09;5049426;28;20135;-72
2023/06/04 04:11:34;;;;;;;5.88;3.50;;;;;;;12.26;66.46;96330.75;5050053;28;20040;-72
2023/06/04 04:14:01;;;;;;;4.65;3.28;;;;;;;12.25;66.29;96334.59;5049906;28;20049;-72
2023/06/04 04:16:28;;;;;;;5.38;3.30;;;;;;;12.30;67.23;96335.56;5048268;28;20041;-72
2023/06/04 04:18:55;;;;;;;6.30;3.17;;;;;;;12.34;67.52;96325.59;5038024;28;20042;-72
2023/06/04 04:21:21;;;;;;;5.65;3.47;;;;;;;12.39;67.77;96325.41;5031120;28;20073;-72
2023/06/04 04:23:50;;;;;;;6.70;3.45;;;;;;;12.45;68.38;96332.25;5043218;28;20079;-72
2023/06/04 04:26:18;;;;;;;5.68;3.30;;;;;;;12.52;69.07;96332.53;5051987;28;20052;-71
2023/06/04 04:28:44;;;;;;;6.40;3.42;;;;;;;12.61;68.62;96341.47;5051078;28;20041;-71
2023/06/04 04:31:11;;;;;;;7.90;3.25;;;;;;;12.67;67.53;96334.69;5049697;28;20049;-72
2023/06/04 04:33:39;;;;;;;4.97;3.00;;;;;;;12.74;65.98;96340.44;5050025;28;20049;-71
2023/06/04 04:36:08;;;;;;;6.30;3.13;;;;;;;12.84;65.43;96335.69;5048847;28;20049;-72
2023/06/04 04:38:35;;;;;;;6.95;3.20;;;;;;;12.90;65.44;96345.31;5049817;28;20045;-72
2023/06/04 04:41:01;;;;;;;4.63;3.03;;;;;;;12.98;65.07;96349.91;5048680;28;20123;-74
2023/06/04 04:43:34;;;;;;;6.15;3.25;;;;;;;13.03;65.56;96346.97;5049625;28;20041;-71
2023/06/04 04:46:01;;;;;;;5.32;2.88;;;;;;;13.10;65.73;96358.16;5050486;28;20037;-72
2023/06/04 04:48:27;;;;;;;5.68;3.05;;;;;;;13.15;65.50;96355.22;5047335;28;20041;-72
2023/06/04 04:50:54;;;;;;;4.68;3.10;;;;;;;13.23;64.42;96354.41;5033520;28;20060;-72
2023/06/04 04:53:21;;;;;;;6.22;3.28;;;;;;;13.29;63.62;96355.78;5051850;28;20041;-72
2023/06/04 04:55:47;;;;;;;4.78;3.30;;;;;;;13.36;63.63;96362.66;5053186;28;20049;-71
2023/06/04 04:58:14;;;;;;;5.35;2.80;;;;;;;13.37;62.69;96356.06;5052649;28;20061;-72
2023/06/04 05:00:42;;;;;;;5.28;2.90;;;;;;;13.45;62.00;96357.91;5053070;28;20048;-72
2023/06/04 05:03:08;;;;;;;4.20;2.90;;;;;;;13.53;62.26;96365.25;5052057;28;20049;-71
2023/06/04 05:05:35;;;;;;;5.68;3.10;;;;;;;13.61;62.44;96360.81;5053133;28;20048;-72
2023/06/04 05:08:01;;;;;;;4.20;2.75;;;;;;;13.64;61.65;96360.94;5052257;28;20060;-73
2023/06/04 05:10:28;;;;;;;4.60;2.85;;;;;;;13.69;62.34;96363.47;5052720;28;20048;-72
2023/06/04 05:12:55;;;;;;;5.90;3.10;;;;;;;13.63;62.93;96367.56;5052495;28;20047;-72
2023/06/04 05:15:22;;;;;;;5.85;2.65;;;;;;;13.76;62.53;96374.66;5052492;28;20048;-72
2023/06/04 05:17:52;;;;;;;6.22;2.72;;;;;;;13.60;57.23;96381.91;5052601;28;20049;-72
2023/06/04 05:20:19;;;;;;;5.50;2.72;;;;;;;13.71;57.18;96377.59;5052340;28;20059;-72
2023/06/04 05:22:46;;;;;;;4.18;2.60;;;;;;;13.87;58.98;96380.50;5052866;28;20045;-72
2023/06/04 05:25:12;;;;;;;4.35;2.67;;;;;;;13.96;59.51;96377.66;5051736;28;20041;-72
2023/06/04 05:27:40;;;;;;;4.63;2.50;;;;;;;14.04;59.91;96384.97;5052379;28;20044;-71
2023/06/04 05:30:08;;;;;;;6.70;2.53;;;;;;;14.14;58.42;96384.53;5051860;28;20691;-72
2023/06/04 05:32:36;;;;;;;5.53;2.60;;;;;;;14.17;58.34;96388.56;5052647;28;20052;-74
2023/06/04 05:35:04;;;;;;;3.53;2.33;;;;;;;14.23;58.60;96382.50;5052095;28;20080;-72
2023/06/04 05:37:34;;;;;;;6.90;2.90;;;;;;;14.30;58.50;96387.41;5051628;28;20576;-72
2023/06/04 05:40:05;;;;;;;4.60;2.47;;;;;;;14.36;59.10;96381.38;5052459;28;20041;-72
2023/06/04 05:42:31;;;;;;;5.60;2.67;;;;;;;14.43;58.72;96386.28;5053011;28;20037;-72
2023/06/04 05:44:58;;;;;;;6.80;2.40;;;;;;;14.47;58.30;96383.69;5054490;28;20056;-72
2023/06/04 05:47:24;;;;;;;5.35;2.67;;;;;;;14.51;59.50;96385.44;5054222;28;20045;-72
2023/06/04 05:49:51;;;;;;;4.13;2.75;;;;;;;14.56;59.06;96395.34;5054377;28;20057;-72
2023/06/04 05:52:19;;;;;;;4.95;2.72;;;;;;;14.63;57.82;96394.78;5053745;28;20053;-72
2023/06/04 05:54:45;;;;;;;4.78;2.72;;;;;;;14.61;58.13;96398.63;5053891;28;20049;-72
2023/06/04 05:57:12;;;;;;;6.50;2.92;;;;;;;14.47;54.93;96402.84;5053272;28;20045;-72
2023/06/04 05:59:38;;;;;;;7.25;2.75;;;;;;;14.32;53.97;96401.59;5052374;28;20492;-71
2023/06/04 06:02:05;;;;;;;5.90;2.47;;;;;;;14.41;53.54;96405.03;5052478;28;20045;-71
2023/06/04 06:04:32;;;;;;;4.45;2.25;;;;;;;14.55;54.20;96404.69;5052752;28;20045;-72
2023/06/04 06:06:58;;;;;;;5.43;2.65;;;;;;;14.38;53.65;96405.69;5052368;28;20053;-72
2023/06/04 06:09:26;;;;;;;8.40;2.70;;;;;;;14.30;53.72;96403.84;5051419;28;20045;-72
2023/06/04 06:11:53;;;;;;;6.22;2.65;;;;;;;14.24;54.64;96408.75;5050681;28;20041;-71
2023/06/04 06:14:19;;;;;;;6.68;2.70;;;;;;;14.33;54.87;96403.97;5047860;28;20041;-72
2023/06/04 06:16:46;;;;;;;4.70;2.67;;;;;;;14.32;55.18;96407.06;5047745;28;20055;-72
2023/06/04 06:19:13;;;;;;;9.65;2.50;;;;;;;14.35;53.79;96400.88;5047950;28;20045;-73
2023/06/04 06:21:39;;;;;;;4.20;2.33;;;;;;;14.65;56.00;96408.94;5048107;28;20049;-73
2023/06/04 06:24:06;;;;;;;5.85;2.47;;;;;;;14.83;52.98;96413.06;5047748;28;20052;-73
2023/06/04 06:26:34;;;;;;;6.22;2.20;;;;;;;14.95;52.84;96417.72;5048076;28;20053;-73
2023/06/04 06:29:00;;;;;;;4.20;2.35;;;;;;;14.82;51.67;96414.97;5036534;28;20525;-72
2023/06/04 06:31:27;;;;;;;5.80;2.42;;;;;;;14.86;51.63;96413.13;5043183;28;20045;-72
2023/06/04 06:33:54;;;;;;;4.80;2.40;;;;;;;14.98;52.83;96417.00;5047705;28;20049;-72
2023/06/04 06:36:20;;;;;;;4.75;2.35;;;;;;;15.19;51.78;96420.44;5039589;28;20045;-72
2023/06/04 06:38:47;;;;;;;7.43;2.60;;;;;;;15.16;51.14;96423.84;5047801;28;20513;-73
2023/06/04 06:41:14;;;;;;;5.38;2.55;;;;;;;15.27;51.00;96424.97;5047359;28;20055;-74
2023/06/04 06:43:42;;;;;;;5.30;2.22;;;;;;;15.35;50.89;96420.50;5048005;28;20056;-72
2023/06/04 06:46:08;;;;;;;6.63;2.30;;;;;;;15.47;50.13;96422.41;5048227;28;20057;-73
2023/06/04 06:48:35;;;;;;;5.30;2.17;;;;;;;15.62;50.43;96432.66;5050223;28;20128;-72
2023/06/04 06:51:02;;;;;;;7.38;2.50;;;;;;;15.69;50.92;96438.38;5047890;28;20123;-73
2023/06/04 06:53:28;;;;;;;6.18;2.80;;;;;;;15.84;50.04;96431.34;5049029;28;20049;-72
2023/06/04 06:55:55;;;;;;;6.82;2.65;;;;;;;16.01;50.85;96432.97;5048346;28;20044;-72
2023/06/04 06:58:22;;;;;;;8.13;2.70;;;;;;;16.09;50.54;96432.03;5046907;28;20049;-72
2023/06/04 07:00:50;;;;;;;5.00;2.15;;;;;;;16.32;51.14;96430.28;5048091;28;20045;-71
2023/06/04 07:03:17;;;;;;;8.82;3.45;;;;;;;16.42;50.18;96429.75;5044550;28;20065;-71
2023/06/04 07:05:44;;;;;;;6.38;4.60;;;;;;;16.49;49.71;96433.84;5048455;28;20056;-71
2023/06/04 07:08:10;;;;;;;4.68;2.40;;;;;;;16.58;49.73;96428.97;5047846;28;20051;-71
2023/06/04 07:10:37;;;;;;;4.20;2.47;;;;;;;16.67;49.26;96429.59;5046386;28;20064;-71
2023/06/04 07:13:03;;;;;;;4.60;2.00;;;;;;;16.82;49.90;96426.06;5047714;28;20048;-72
2023/06/04 07:15:30;;;;;;;7.22;2.42;;;;;;;16.85;49.02;96430.03;5047976;28;20049;-71
2023/06/04 07:17:58;;;;;;;5.72;2.50;;;;;;;16.83;47.85;96433.16;5047935;28;20443;-71
2023/06/04 07:20:24;;;;;;;4.85;2.40;;;;;;;16.87;48.92;96431.28;5047077;28;20123;-71
2023/06/04 07:22:51;;;;;;;5.10;2.35;;;;;;;16.85;47.25;96436.34;5046970;28;20045;-72
2023/06/04 07:25:17;;;;;;;4.30;2.30;;;;;;;16.98;47.18;96428.78;5047859;28;20075;-72
2023/06/04 07:27:44;;;;;;;5.95;2.13;;;;;;;17.15;48.12;96436.66;5047651;28;20071;-71
2023/06/04 07:30:10;;;;;;;3.80;2.20;;;;;;;17.09;46.52;96435.34;5047129;28;20052;-71
2023/06/04 07:32:37;;;;;;;3.58;1.90;;;;;;;17.22;46.93;96433.25;5044794;28;20059;-71
2023/06/04 07:35:05;;;;;;;6.40;2.40;;;;;;;17.43;47.52;96432.94;5047629;28;20049;-72
2023/06/04 07:37:32;;;;;;;4.38;2.22;;;;;;;17.58;46.06;96431.28;5047666;28;20045;-71
2023/06/04 07:39:59;;;;;;;4.53;2.00;;;;;;;17.53;46.73;96426.84;5047316;28;20037;-72
2023/06/04 07:42:25;;;;;;;3.47;2.13;;;;;;;17.77;46.71;96433.28;5046623;28;20055;-72
2023/06/04 07:44:52;;;;;;;6.45;2.45;;;;;;;17.68;45.71;96427.94;5048157;28;20491;-72
2023/06/04 07:47:18;;;;;;;5.30;2.70;;;;;;;17.66;45.76;96424.78;5045936;28;20044;-71
2023/06/04 07:49:45;;;;;;;6.43;2.25;;;;;;;17.79;45.84;96420.72;5047970;28;20048;-71
2023/06/04 07:52:13;;;;;;;7.47;3.45;;;;;;;17.84;45.04;96425.94;5047248;28;20052;-71
2023/06/04 07:54:41;;;;;;;4.75;2.50;;;;;;;18.13;47.08;96426.50;5045486;28;20041;-72
2023/06/04 07:57:08;;;;;;;3.97;2.13;;;;;;;18.26;46.63;96430.69;5043176;28;20045;-72
2023/06/04 07:59:35;;;;;;;6.00;2.35;;;;;;;18.55;47.03;96417.41;5047496;28;20073;-72
2023/06/04 08:02:01;;;;;;;6.65;2.30;;;;;;;18.61;44.05;96425.00;5048153;28;20045;-72
2023/06/04 08:04:28;;;;;;;5.00;2.10;;;;;;;18.83;44.55;96419.88;5046955;28;20527;-72
2023/06/04 08:06:55;;;;;;;6.80;2.28;;;;;;;19.06;46.04;96426.16;5029608;28;20056;-72
2023/06/04 08:09:23;;;;;;;6.75;2.20;;;;;;;19.17;44.30;96429.09;5047099;28;20131;-71
2023/06/04 08:11:50;;;;;;;8.75;2.40;;;;;;;19.29;43.29;96429.66;5047300;28;20152;-72
2023/06/04 08:14:16;;;;;;;7.90;2.78;;;;;;;19.55;44.30;96428.81;5046810;28;20063;-71
2023/06/04 08:16:43;;;;;;;4.50;2.08;;;;;;;19.79;43.18;96424.03;5048253;28;20400;-71
2023/06/04 08:19:09;;;;;;;6.50;2.60;;;;;;;19.86;41.67;96426.09;5046944;28;20056;-72
2023/06/04 08:21:37;;;;;;;6.00;2.65;;;;;;;19.92;42.96;96422.59;5050151;28;20037;-72
2023/06/04 08:24:03;;;;;;;8.60;2.70;;;;;;;19.91;42.35;96418.25;5051921;28;20060;-72
2023/06/04 08:26:32;;;;;;;7.95;2.50;;;;;;;20.24;41.83;96416.63;5053953;28;20049;-72
2023/06/04 08:28:58;;;;;;;4.68;2.65;;;;;;;20.44;43.50;96418.03;5053675;28;20044;-72
2023/06/04 08:31:25;;;;;;;6.07;2.25;;;;;;;20.55;41.58;96420.91;5052961;28;20052;-72
2023/06/04 08:33:52;;;;;;;3.90;2.22;;;;;;;20.72;41.49;96422.25;5053410;28;20708;-72
2023/06/04 08:36:18;;;;;;;7.18;2.67;;;;;;;20.49;40.43;96425.22;5053865;28;20041;-72
2023/06/04 08:38:44;;;;;;;3.88;2.20;;;;;;;20.79;41.40;96416.78;5053656;28;20067;-72
2023/06/04 08:41:15;;;;;;;5.63;2.38;;;;;;;20.92;41.08;96426.38;5053348;28;20048;-71
2023/06/04 08:43:44;;;;;;;4.10;2.47;;;;;;;21.18;41.74;96427.34;5053621;28;20526;-72
2023/06/04 08:46:12;;;;;;;4.35;2.33;;;;;;;21.24;40.14;96423.03;5053035;28;20041;-72
2023/06/04 08:48:39;;;;;;;4.75;2.78;;;;;;;20.94;38.55;96426.81;5052549;28;20499;-72
2023/06/04 08:51:08;;;;;;;6.57;2.50;;;;;;;21.25;38.74;96422.66;5053654;28;20041;-72
2023/06/04 08:53:35;;;;;;;6.53;2.58;;;;;;;21.45;38.88;96431.50;5049930;28;20495;-72
2023/06/04 08:56:02;;;;;;;3.10;2.15;;;;;;;21.69;38.28;96427.28;5051715;28;20078;-73
2023/06/04 08:58:31;;;;;;;4.28;2.60;;;;;;;21.87;41.22;96424.59;5071503;28;20045;-72
2023/06/04 09:01:00;;;;;;;3.60;2.50;;;;;;;21.74;38.07;96426.13;5055810;28;20037;-72
2023/06/04 09:03:27;;;;;;;5.22;2.70;;;;;;;21.67;39.03;96429.66;5054966;28;20047;-72
2023/06/04 09:05:55;;;;;;;9.73;2.67;;;;;;;21.70;39.06;96430.84;5054675;28;20045;-72
2023/06/04 09:08:23;;;;;;;5.45;2.50;;;;;;;21.89;39.16;96433.31;5056318;28;20052;-72
2023/06/04 09:10:54;;;;;;;4.35;2.47;;;;;;;22.12;39.87;96431.06;5058132;28;20045;-72
2023/06/04 09:13:23;;;;;;;6.00;2.95;;;;;;;22.09;38.41;96426.28;5055856;28;20488;-72
2023/06/04 09:16:01;;;;;;;4.25;2.33;;;;;;;22.26;39.88;96423.97;5056272;28;20052;-72
2023/06/04 09:18:28;;;;;;;5.72;2.42;;;;;;;22.49;38.35;96427.19;5056821;28;20047;-73
2023/06/04 09:21:05;;;;;;;5.38;2.45;;;;;;;22.52;38.25;96422.84;5055145;28;20056;-73
2023/06/04 09:23:32;;;;;;;5.82;2.35;;;;;;;22.50;36.89;96423.25;5057039;28;20071;-73
2023/06/04 09:26:07;;;;;;;5.45;2.70;;;;;;;22.48;38.26;96414.50;5056485;28;20048;-72
2023/06/04 09:28:34;;;;;;;4.05;2.05;;;;;;;22.59;38.25;96418.06;5052223;28;20065;-72
2023/06/04 09:31:03;;;;;;;5.35;2.53;;;;;;;22.51;37.27;96422.03;5053309;28;20037;-72
2023/06/04 09:33:29;;;;;;;7.93;2.67;;;;;;;22.64;36.68;96426.00;5048685;28;20098;-72
2023/06/04 09:35:57;;;;;;;6.00;2.60;;;;;;;22.70;36.68;96428.41;5048645;28;20045;-72
2023/06/04 09:38:23;;;;;;;5.07;2.40;;;;;;;22.50;36.20;96426.00;5048001;28;20045;-73
2023/06/04 09:40:50;;;;;;;4.68;2.35;;;;;;;22.34;36.04;96436.66;5048338;28;20049;-72
2023/06/04 09:43:23;;;;;;;8.40;2.50;;;;;;;22.40;36.90;96426.78;5048354;28;20789;-73
2023/06/04 09:45:49;;;;;;;;;;;;;;;22.61;37.28;96424.03;5049170;28;20102;-73
2023/06/04 09:48:21;;;;;;;5.07;2.30;;;;;;;22.81;36.83;96426.41;5047965;28;19940;-74
2023/06/04 09:50:48;;;;;;;4.63;2.50;;;;;;;22.84;35.78;96420.09;5047631;28;20665;-73
2023/06/04 09:53:15;;;;;;;6.10;2.88;;;;;;;22.67;36.11;96416.13;5042094;28;20138;-73
2023/06/04 09:55:42;;;;;;;3.88;2.40;;;;;;;23.01;38.21;96407.41;5046485;28;20053;-74
2023/06/04 09:58:11;;;;;;;6.43;2.30;;;;;;;22.99;34.67;96416.16;5048404;28;20140;-73
2023/06/04 10:00:38;;;;;;;4.38;2.05;;;;;;;23.20;36.36;96409.00;5048646;28;20057;-73
2023/06/04 10:03:06;;;;;;;7.97;2.67;;;;;;;23.13;36.57;96409.78;5045993;28;20136;-75
2023/06/04 10:05:35;;;;;;;7.40;3.15;;;;;;;23.16;36.09;96414.53;5048885;28;20052;-74
2023/06/04 10:08:05;;;;;;;6.88;2.38;;;;;;;23.27;35.61;96409.75;5040098;28;20049;-77
2023/06/04 10:10:36;;;;;;;3.78;2.30;;;;;;;23.39;36.27;96411.34;5047937;28;20115;-74
2023/06/04 10:13:07;;;;;;;5.40;2.30;;;;;;;23.12;34.78;96408.97;5040301;28;20045;-75
2023/06/04 10:15:36;;;;;;;7.07;2.50;;;;;;;23.11;35.25;96415.72;5047921;28;20132;-74
2023/06/04 10:18:04;;;;;;;4.95;2.15;;;;;;;23.14;36.00;96412.16;5047524;28;20049;-75
2023/06/04 10:20:31;;;;;;;7.22;2.15;;;;;;;23.33;37.05;96401.81;5048276;28;20049;-74
2023/06/04 10:23:00;;;;;;;7.38;2.40;;;;;;;23.18;35.15;96407.41;5048111;28;20053;-73
2023/06/04 10:25:27;;;;;;;3.50;2.20;;;;;;;23.36;34.27;96406.56;5047290;28;20051;-74
2023/06/04 10:27:54;;;;;;;4.20;2.45;;;;;;;23.23;34.32;96408.16;5047314;28;20053;-73
2023/06/04 10:30:21;;;;;;;5.72;2.28;;;;;;;23.34;34.20;96409.75;5028902;28;20584;-74
2023/06/04 10:32:47;;;;;;;5.55;2.22;;;;;;;23.04;33.96;96407.41;5046800;28;20056;-73
2023/06/04 10:35:15;;;;;;;5.55;2.40;;;;;;;23.28;36.03;96407.78;5048867;28;20048;-74
2023/06/04 10:37:42;;;;;;;5.03;2.33;;;;;;;23.31;35.35;96409.75;5048347;28;20052;-74
2023/06/04 10:40:10;;;;;;;5.03;2.28;;;;;;;23.24;34.19;96405.00;5048090;28;20045;-74
2023/06/04 10:42:41;;;;;;;5.70;2.33;;;;;;;23.41;35.98;96414.50;5048611;28;20496;-73
2023/06/04 10:45:09;;;;;;;4.00;2.75;;;;;;;23.39;37.17;96412.13;5047778;28;20045;-74
2023/06/04 10:47:39;;;;;;;7.95;2.78;;;;;;;23.23;35.00;96402.63;5048755;28;20054;-74
2023/06/04 10:50:10;;;;;;;6.55;2.53;;;;;;;23.29;34.53;96406.59;5048906;28;20044;-75
2023/06/04 10:52:37;;;;;;;6.15;2.78;;;;;;;23.16;35.91;96407.00;5050036;28;20099;-73
2023/06/04 10:55:05;;;;;;;4.90;2.60;;;;;;;23.12;34.75;96394.31;5048538;28;20051;-75
2023/06/04 10:57:33;;;;;;;7.80;2.50;;;;;;;23.22;35.03;96403.81;5049988;28;20052;-73
2023/06/04 11:00:03;;;;;;;3.80;2.60;;;;;;;23.35;36.39;96403.00;5044177;28;20057;-73
2023/06/04 11:02:30;;;;;;;5.60;2.65;;;;;;;23.52;35.63;96398.59;5049887;28;20114;-74
2023/06/04 11:05:03;;;;;;;4.93;2.38;;;;;;;23.61;34.55;96400.97;5049495;28;20045;-74
2023/06/04 11:07:29;;;;;;;5.63;2.80;;;;;;;23.49;35.60;96393.84;5048931;28;20454;-74
2023/06/04 11:09:56;;;;;;;6.35;2.55;;;;;;;23.62;34.82;96392.22;5048819;28;20404;-73
2023/06/04 11:12:23;;;;;;;7.03;2.55;;;;;;;23.24;34.92;96391.13;5047290;28;20048;-74
2023/06/04 11:15:00;;;;;;;4.15;2.70;;;;;;;23.46;35.25;96385.50;5047889;28;20073;-74
2023/06/04 11:17:26;;;;;;;5.90;2.63;;;;;;;23.38;35.70;96388.28;5047727;28;20126;-73
2023/06/04 11:19:55;;;;;;;5.28;2.40;;;;;;;23.28;35.17;96388.31;5048195;28;20048;-73
2023/06/04 11:22:21;;;;;;;7.82;2.60;;;;;;;23.32;35.84;96389.13;5047930;28;20135;-73
2023/06/04 11:24:48;;;;;;;6.30;2.90;;;;;;;23.33;35.49;96390.69;5048219;28;20056;-74
2023/06/04 11:27:15;;;;;;;4.53;2.70;;;;;;;23.56;37.23;96379.91;5048356;28;20051;-74
2023/06/04 11:29:41;;;;;;;5.40;2.60;;;;;;;23.66;35.34;96384.69;5048969;28;20041;-73
2023/06/04 11:32:09;;;;;;;5.75;3.03;;;;;;;23.76;34.00;96385.84;5047558;28;20048;-73
2023/06/04 11:34:37;;;;;;;4.20;2.55;;;;;;;23.97;33.86;96384.97;5048304;28;20661;-73